Aviation Digital Data Service (ADDS)

Output produced by METARs form (1432 UTC 24 July 2017)
found at http://www.aviationweather.gov/adds/metars/
 
KAOO 241426Z AUTO 30009KT 10SM SCT023 BKN028 24/19 A2988 RMK AO2 T02390194
KAOO 241353Z AUTO 29007KT 10SM SCT019 23/19 A2987 RMK AO2 SLP105 T02280194
KAOO 241253Z AUTO 30005KT 10SM OVC017 21/19 A2987 RMK AO2 SLP105 T02110189
KAOO 241153Z AUTO VRB06KT 10SM BKN020 21/19 A2986 RMK AO2 RAB01E15 SLP100 P0000 60000 70008 T02110194 10217 20200 51017
KAOO 241053Z AUTO 00000KT 10SM BKN021 OVC027 21/19 A2985 RMK AO2 SLP097 T02060194
KAOO 240953Z AUTO 26003KT 10SM OVC021 21/20 A2983 RMK AO2 SLP091 T02060200
KAOO 240853Z AUTO 00000KT 9SM BKN018 OVC023 21/21 A2981 RMK AO2 SLP081 60000 T02060206 53003
KAOO 240809Z AUTO 00000KT 10SM BKN018 20/20 A2979 RMK AO2 T02000200
KAOO 240753Z AUTO 27004KT 10SM SCT016 20/20 A2979 RMK AO2 SLP076 T02000200
KAOO 240653Z AUTO 24003KT 10SM SCT030 BKN044 21/20 A2979 RMK AO2 RAB20E52 SLP074 P0000 T02060200
KAOO 240644Z AUTO 26004KT 10SM -RA FEW012 BKN030 BKN042 21/20 A2979 RMK AO2 RAB20 P0000 T02060200
KAOO 240625Z AUTO 26006KT 10SM -RA SCT012 BKN028 OVC110 21/20 A2980 RMK AO2 RAB20 P0000 T02060200
KAOO 240553Z AUTO 24003KT 8SM OVC012 22/22 A2980 RMK AO2 SLP076 60007 T02170217 10239 20217 56007
KAOO 240542Z AUTO 21003KT 8SM BKN014 BKN021 OVC034 22/22 A2979 RMK AO2 T02170217
KAOO 240453Z AUTO 00000KT 10SM SCT020 BKN029 OVC110 22/22 A2980 RMK AO2 RAE23 SLP077 P0000 T02170217 403000200
KAOO 240440Z AUTO 00000KT 9SM BKN020 BKN029 OVC095 22/22 A2980 RMK AO2 RAE23 P0000 T02170217
KAOO 240353Z AUTO 18004KT 10SM -RA FEW035 BKN055 OVC120 22/22 A2980 RMK AO2 LTG DSNT E SLP080 P0003 T02170217
KAOO 240253Z AUTO 21008KT 4SM +RA BR FEW025 BKN065 OVC080 22/21 A2982 RMK AO2 RAB29 SLP084 P0004 60004 T02170211 53006
KAOO 240153Z AUTO 21005KT 10SM BKN080 23/21 A2981 RMK AO2 SLP082 T02280206
KAOO 240053Z AUTO 20005KT 10SM CLR 23/21 A2980 RMK AO2 SLP080 T02280206
KAOO 232353Z AUTO 21005KT 10SM CLR 24/21 A2980 RMK AO2 SLP079 60001 T02440206 10300 20244 53003
KAOO 232253Z AUTO 23008KT 10SM CLR 26/21 A2978 RMK AO2 SLP073 T02560211
KAOO 232153Z AUTO 22008KT 10SM SCT065 26/22 A2980 RMK AO2 SLP078 T02610217
KAOO 232053Z AUTO 22007KT 10SM CLR 26/22 A2979 RMK AO2 LTG DSNT SE RAE1954 SLP075 P0000 60001 T02560217 58011
KAOO 231953Z AUTO 22005KT 10SM -RA FEW019 SCT075 OVC095 26/23 A2981 RMK AO2 LTG DSNT ALQDS RAB34 SLP084 P0001 T02560228
KAOO 231853Z AUTO 28006KT 10SM FEW044 SCT075 29/21 A2982 RMK AO2 SLP082 T02890206
KAOO 231753Z AUTO 27006KT 10SM CLR 29/21 A2982 RMK AO2 SLP085 T02940211 10294 20228 58006
KAOO 231653Z AUTO VRB04KT 10SM BKN060 28/21 A2985 RMK AO2 SLP094 T02830211
KAOO 231553Z AUTO 30008KT 10SM FEW029 FEW037 28/21 A2985 RMK AO2 SLP096 T02780211
KAOO 231453Z AUTO 27008KT 10SM SCT020 27/22 A2984 RMK AO2 SLP092 T02720217 58001
KAOO 231405Z AUTO 27009KT 10SM FEW021 SCT026 BKN060 26/22 A2985 RMK AO2 T02560217
KAOO 231353Z AUTO 28009KT 10SM BKN022 BKN029 BKN060 26/22 A2986 RMK AO2 SLP098 T02560217
KAOO 231331Z AUTO 23005KT 10SM BKN019 25/22 A2985 RMK AO2 T02500217
KAOO 231253Z AUTO 26005KT 10SM CLR 24/22 A2985 RMK AO2 SLP095 T02440222
KAOO 231153Z AUTO VRB03KT 7SM FEW015 SCT021 BKN070 23/22 A2984 RMK AO2 SLP094 70008 T02280222 10228 20200 53008
KAOO 231133Z AUTO 24005KT 6SM BR BKN021 BKN029 BKN042 22/22 A2985 RMK AO2 T02170217
KAOO 231053Z AUTO 18004KT 3SM BR SCT038 BKN046 21/21 A2983 RMK AO2 SLP091 T02110211
KAOO 230953Z AUTO 00000KT 5SM BR FEW018 SCT050 BKN090 21/21 A2981 RMK AO2 SLP083 T02060206
KAOO 230853Z AUTO 21004KT 7SM SCT021 21/21 A2982 RMK AO2 SLP086 T02110206 53001
KAOO 230753Z AUTO 21004KT 9SM BKN017 OVC023 22/21 A2981 RMK AO2 SLP083 T02170211
KAOO 230653Z AUTO 22003KT 10SM BKN020 22/21 A2981 RMK AO2 SLP084 T02170211
KAOO 230642Z AUTO 20005KT 9SM BKN021 21/21 A2981 RMK AO2 T02110211
KAOO 230624Z AUTO 21005KT 9SM SCT021 21/21 A2981 RMK AO2 T02110211
KAOO 230553Z AUTO 21006KT 10SM BKN022 21/21 A2982 RMK AO2 SLP085 60005 T02110211 10239 20211 58006
KAOO 230529Z AUTO 21004KT 9SM FEW022 SCT028 21/21 A2982 RMK AO2 T02110211
KAOO 230453Z AUTO 21004KT 10SM SCT021 BKN026 OVC041 22/21 A2983 RMK AO2 SLP089 T02170211 402670206
KAOO 230444Z AUTO 21003KT 10SM FEW018 SCT028 BKN038 22/21 A2983 RMK AO2 T02170211
KAOO 230423Z AUTO 00000KT 10SM BKN018 BKN026 22/22 A2983 RMK AO2 T02170217
KAOO 230353Z AUTO 22004KT 10SM CLR 22/21 A2982 RMK AO2 SLP086 T02170211
KAOO 230253Z AUTO 22004KT 10SM FEW018 SCT075 22/22 A2984 RMK AO2 SLP091 60005 T02170217 58002
KAOO 230235Z AUTO 21005KT 7SM SCT018 BKN036 BKN080 22/22 A2984 RMK AO2 T02170217